Hauptseite
METAR-TAF:

METAR-TAF

Flughäfen :

Flughafen VC Bird International

Antigua, Antigua und Barbuda

Breite: 17-07N, Länge: 061-47W, Höhe: 8 m

Beobachtung

Neuester Wetterbericht von vor 50 Minuten, um 05:00 UTC
Wind 8 kt aus Ost, variierte zwischen Nordost und Südost
Temperatur 25°C
Luftfeuchtigkeit 79%
Luftdruck 1016 hPa
Sichtweite 10 km oder mehr
Aufgelockert bewölkt in der Höhe von 1800 ft
Schauer in der Nähe,

METAR: TAPA 280500Z 08008KT 040V130 9999 VCSH SCT018 25/21 Q1016 NOSIG

Zeit: 01:50 (05:50 UTC)

Prognose

Neuester Wetterbericht von vor 50 Minuten, um 05:00 UTC
Gültige Prognose vom 28 um 06 UTC bis 29 um 06 UTC
Wind 8 kt aus Ost
Sichtweite 10 km oder mehr
Aufgelockert bewölkt in der Höhe von 2000 ft
Wahrscheinlichkeit 30% :
Zeitweise
vom 28 um 12 UTC bis 28 um 18 UTC
Regenschauer,

TAF: TAPA 280500Z 2806/2906 08008KT 9999 SCT020 PROB30 TEMPO 2812/2818 SHRA

Wetterbeobachtungen und Prognosen von mehr als 4000 Flughäfen (METAR und TAF Bericht).

Die verfügbaren Stationen werden durch gelbe und rote Markierungen auf der Karte dargestellt.

Führen Sie die Maus auf sie, um den Namen der Station zu sehen.

Darauf klicken, um die Beobachtung von Wetterbeobachtungen und Prognosen zu sehen.

Um die Karte zu ändern : klicken Sie auf den grünen Tasten mit einem schwarzen Kreuz Zum Vergrößern, auf den grünen Button mit einem Gedankenstrich zu verkleinern, oder auf die grünen Pfeile für benachbarte Karten.


METAR-TAF: